createdAt,value
2019-04-07T00:00:15.335Z,62.87
2019-04-07T00:02:42.592Z,58.83
2019-04-07T00:05:14.174Z,59.90
2019-04-07T00:07:39.387Z,57.47
2019-04-07T00:10:08.333Z,57.27
2019-04-07T00:12:37.905Z,60.50
2019-04-07T00:15:06.001Z,54.50
2019-04-07T00:17:33.234Z,59.47
2019-04-07T00:20:00.664Z,57.70
2019-04-07T00:22:28.038Z,56.00
2019-04-07T00:24:55.614Z,58.80
2019-04-07T00:27:23.031Z,57.17
2019-04-07T00:29:50.833Z,58.43
2019-04-07T00:32:18.256Z,55.80
2019-04-07T00:34:45.539Z,56.93
2019-04-07T00:37:12.890Z,56.67
2019-04-07T00:39:40.209Z,56.63
2019-04-07T00:42:07.553Z,60.70
2019-04-07T00:44:35.375Z,57.40
2019-04-07T00:47:03.106Z,59.33
2019-04-07T00:49:31.128Z,61.60
2019-04-07T00:51:59.825Z,60.73
2019-04-07T00:54:27.034Z,59.90
2019-04-07T00:56:54.492Z,55.90
2019-04-07T00:59:21.716Z,58.63
2019-04-07T01:01:48.912Z,58.03
2019-04-07T01:04:16.457Z,57.53
2019-04-07T01:06:43.802Z,57.27
2019-04-07T01:09:11.428Z,57.40
2019-04-07T01:11:38.797Z,56.33
2019-04-07T01:14:07.004Z,55.23
2019-04-07T01:16:34.435Z,57.67
2019-04-07T01:19:02.293Z,57.00
2019-04-07T01:21:30.304Z,55.60
2019-04-07T01:23:57.864Z,56.60
2019-04-07T01:26:25.259Z,60.77
2019-04-07T01:28:54.529Z,59.57
2019-04-07T01:31:22.474Z,53.80
2019-04-07T01:33:49.806Z,54.03
2019-04-07T01:36:17.232Z,54.27
2019-04-07T01:38:44.561Z,60.53
2019-04-07T01:41:24.030Z,56.30
2019-04-07T01:44:00.142Z,50.50
2019-04-07T01:46:37.076Z,54.83
2019-04-07T01:49:13.476Z,52.37
2019-04-07T01:51:46.673Z,51.37
2019-04-07T01:54:32.002Z,52.63
2019-04-07T01:57:15.931Z,51.77
2019-04-07T02:00:14.668Z,51.63
2019-04-07T02:02:56.897Z,54.60
2019-04-07T02:06:03.877Z,53.73
2019-04-07T02:08:38.589Z,56.23
2019-04-07T02:11:31.728Z,55.63
2019-04-07T02:14:19.301Z,55.20
2019-04-07T02:16:59.345Z,55.13
2019-04-07T02:19:49.930Z,55.40
2019-04-07T02:22:42.718Z,51.40
2019-04-07T02:25:26.401Z,53.70
2019-04-07T02:28:12.177Z,54.00
2019-04-07T02:31:00.656Z,53.47
2019-04-07T02:33:51.090Z,55.83
2019-04-07T02:36:30.281Z,53.80
2019-04-07T02:39:13.131Z,51.77
2019-04-07T02:41:52.015Z,51.23
2019-04-07T02:44:53.946Z,49.87
2019-04-07T02:47:39.443Z,47.90
2019-04-07T02:50:26.311Z,51.60
2019-04-07T02:53:13.490Z,52.37
2019-04-07T02:56:01.837Z,51.13
2019-04-07T02:58:45.205Z,49.20
2019-04-07T03:01:35.148Z,50.43
2019-04-07T03:04:22.967Z,49.27
2019-04-07T03:07:25.113Z,50.93
2019-04-07T03:10:31.102Z,52.00
2019-04-07T03:13:24.306Z,52.77
2019-04-07T03:16:12.528Z,47.67
2019-04-07T03:18:44.502Z,47.20
2019-04-07T03:21:28.304Z,48.70
2019-04-07T03:24:08.047Z,48.13
2019-04-07T03:26:55.595Z,49.47
2019-04-07T03:29:45.347Z,48.63
2019-04-07T03:32:37.514Z,50.33
2019-04-07T03:35:34.399Z,51.10
2019-04-07T03:38:33.627Z,45.93
2019-04-07T03:41:19.705Z,49.40
2019-04-07T03:43:55.055Z,48.33
2019-04-07T03:46:45.779Z,46.27
2019-04-07T03:49:50.988Z,44.93
2019-04-07T03:52:28.749Z,48.80
2019-04-07T03:55:11.806Z,48.83
2019-04-07T03:57:53.447Z,47.70
2019-04-07T04:01:25.783Z,45.77
2019-04-07T04:04:13.738Z,42.63
2019-04-07T04:07:00.120Z,46.30
2019-04-07T04:09:47.603Z,49.13
2019-04-07T04:12:20.063Z,46.73
2019-04-07T04:15:00.559Z,46.37
2019-04-07T04:17:28.990Z,48.30
2019-04-07T04:19:56.236Z,46.63
2019-04-07T04:22:23.461Z,47.80
2019-04-07T04:24:51.776Z,45.90
2019-04-07T04:27:19.012Z,45.57
2019-04-07T04:29:46.563Z,48.03
2019-04-07T04:32:13.945Z,47.13
2019-04-07T04:34:41.253Z,47.47
2019-04-07T04:37:09.429Z,45.47
2019-04-07T04:39:37.494Z,47.87
2019-04-07T04:42:05.538Z,43.50
2019-04-07T04:44:32.988Z,48.37
2019-04-07T04:47:01.616Z,49.87
2019-04-07T04:49:29.687Z,47.37
2019-04-07T04:51:57.150Z,46.37
2019-04-07T04:54:24.904Z,46.20
2019-04-07T04:56:53.529Z,45.20
2019-04-07T04:59:21.656Z,49.77
2019-04-07T05:01:49.055Z,51.23
2019-04-07T05:04:16.309Z,47.47
2019-04-07T05:06:43.654Z,48.20
2019-04-07T05:09:11.054Z,48.50
2019-04-07T05:11:38.339Z,48.27
2019-04-07T05:14:05.917Z,47.33
2019-04-07T05:16:33.281Z,51.17
2019-04-07T05:19:00.759Z,51.80
2019-04-07T05:21:28.213Z,52.13
2019-04-07T05:23:56.164Z,51.23
2019-04-07T05:26:24.037Z,51.60
2019-04-07T05:28:51.462Z,50.00
2019-04-07T05:31:18.778Z,52.60
2019-04-07T05:33:46.489Z,53.03
2019-04-07T05:36:13.815Z,47.60
2019-04-07T05:38:41.111Z,49.93
2019-04-07T05:41:08.319Z,50.67
2019-04-07T05:43:35.581Z,51.60
2019-04-07T05:46:05.861Z,48.97
2019-04-07T05:48:32.654Z,51.00
2019-04-07T05:51:01.058Z,50.97
2019-04-07T05:53:28.657Z,50.30
2019-04-07T05:55:56.281Z,50.57
2019-04-07T05:58:24.185Z,49.73
2019-04-07T06:00:51.687Z,48.73
2019-04-07T06:03:20.316Z,48.07
2019-04-07T06:05:50.810Z,46.57
2019-04-07T06:08:24.629Z,46.83
2019-04-07T06:10:48.927Z,48.97
2019-04-07T06:13:17.467Z,46.63
2019-04-07T06:15:45.718Z,46.50
2019-04-07T06:18:13.778Z,45.50
2019-04-07T06:20:44.106Z,46.00
2019-04-07T06:23:10.309Z,45.80
2019-04-07T06:25:41.535Z,45.03
2019-04-07T06:28:07.191Z,44.47
2019-04-07T06:30:36.201Z,45.00
2019-04-07T06:33:06.120Z,45.57
2019-04-07T06:35:33.580Z,42.80
2019-04-07T06:38:05.240Z,44.83
2019-04-07T06:40:30.623Z,44.10
2019-04-07T06:42:57.951Z,43.90
2019-04-07T06:45:30.596Z,42.23
2019-04-07T06:48:01.530Z,43.97
2019-04-07T06:50:56.627Z,44.30
2019-04-07T06:53:46.785Z,44.73
2019-04-07T06:56:46.775Z,45.37
2019-04-07T06:59:26.131Z,41.97
2019-04-07T07:02:15.704Z,43.70
2019-04-07T07:05:02.984Z,43.40
2019-04-07T07:07:53.106Z,42.37
2019-04-07T07:10:39.951Z,41.13
2019-04-07T07:13:29.252Z,42.63
2019-04-07T07:16:20.734Z,43.03
2019-04-07T07:19:06.412Z,41.40
2019-04-07T07:22:13.141Z,40.53
2019-04-07T07:24:38.101Z,39.97
2019-04-07T07:27:09.352Z,38.73
2019-04-07T07:29:36.217Z,40.77
2019-04-07T07:32:04.859Z,39.00
2019-04-07T07:34:32.383Z,39.63
2019-04-07T07:36:59.989Z,40.07
2019-04-07T07:39:27.273Z,38.97
2019-04-07T07:41:55.095Z,39.97
2019-04-07T07:44:22.428Z,40.30
2019-04-07T07:46:51.500Z,39.17
2019-04-07T07:49:19.195Z,37.93
2019-04-07T07:51:48.421Z,38.53
2019-04-07T07:54:16.179Z,35.33
2019-04-07T07:56:49.421Z,39.90
2019-04-07T07:59:13.430Z,38.40
2019-04-07T08:01:44.281Z,36.03
2019-04-07T08:04:09.824Z,36.73
2019-04-07T08:06:40.191Z,37.23
2019-04-07T08:09:12.888Z,36.87
2019-04-07T08:11:37.276Z,37.70
2019-04-07T08:14:04.556Z,35.77
2019-04-07T08:16:32.550Z,36.20
2019-04-07T08:19:01.305Z,36.07
2019-04-07T08:21:29.137Z,36.83
2019-04-07T08:23:56.807Z,34.03
2019-04-07T08:26:25.148Z,34.33
2019-04-07T08:28:53.379Z,37.30
2019-04-07T08:31:21.541Z,34.10
2019-04-07T08:33:51.240Z,34.90
2019-04-07T08:36:18.322Z,34.23
2019-04-07T08:38:45.629Z,33.07
2019-04-07T08:41:15.481Z,32.47
2019-04-07T08:43:42.099Z,32.00
2019-04-07T08:46:09.943Z,33.30
2019-04-07T08:48:37.433Z,32.17
2019-04-07T08:51:04.786Z,32.73
2019-04-07T08:53:32.012Z,31.10
2019-04-07T08:55:59.882Z,29.57
2019-04-07T08:58:28.983Z,30.77
2019-04-07T09:00:57.359Z,28.03
2019-04-07T09:03:24.681Z,31.87
2019-04-07T09:05:57.403Z,31.40
2019-04-07T09:08:24.962Z,30.57
2019-04-07T09:11:06.723Z,29.53
2019-04-07T09:13:34.295Z,28.67
2019-04-07T09:16:24.680Z,30.23
2019-04-07T09:19:09.594Z,29.37
2019-04-07T09:22:08.311Z,29.43
2019-04-07T09:25:06.606Z,28.67
2019-04-07T09:27:49.321Z,28.13
2019-04-07T09:30:48.892Z,29.07
2019-04-07T09:33:42.121Z,29.73
2019-04-07T09:36:18.016Z,29.80
2019-04-07T09:38:57.036Z,29.20
2019-04-07T09:41:52.710Z,29.20
2019-04-07T09:44:40.209Z,29.27
2019-04-07T09:47:21.488Z,28.27
2019-04-07T09:50:14.249Z,29.50
2019-04-07T09:53:03.914Z,27.53
2019-04-07T09:55:41.112Z,27.57
2019-04-07T09:58:21.667Z,27.83
2019-04-07T10:01:06.709Z,27.50
2019-04-07T10:03:43.687Z,26.03
2019-04-07T10:06:25.744Z,27.30
2019-04-07T10:09:05.648Z,30.00
2019-04-07T10:11:57.905Z,27.00
2019-04-07T10:14:48.836Z,27.17
2019-04-07T10:17:35.725Z,27.80
2019-04-07T10:20:32.573Z,27.80
2019-04-07T10:23:16.275Z,29.00
2019-04-07T10:25:56.198Z,27.73
2019-04-07T10:28:43.461Z,27.20
2019-04-07T10:31:43.247Z,28.07
2019-04-07T10:34:31.035Z,28.67
2019-04-07T10:37:22.043Z,29.17
2019-04-07T10:40:16.713Z,28.60
2019-04-07T10:42:55.533Z,29.73
2019-04-07T10:45:38.288Z,29.07
2019-04-07T10:48:28.606Z,29.27
2019-04-07T10:51:10.448Z,30.83
2019-04-07T10:53:57.328Z,28.47
2019-04-07T10:56:56.386Z,30.63
2019-04-07T10:59:53.236Z,32.07
2019-04-07T11:02:29.413Z,30.63
2019-04-07T11:05:16.257Z,31.30
2019-04-07T11:08:09.091Z,30.87
2019-04-07T11:11:01.655Z,31.37
2019-04-07T11:13:49.996Z,30.77
2019-04-07T11:16:46.301Z,31.07
2019-04-07T11:19:53.025Z,31.13
2019-04-07T11:22:38.307Z,29.83
2019-04-07T11:25:34.741Z,29.30
2019-04-07T11:28:20.843Z,29.23
2019-04-07T11:30:57.444Z,28.80
2019-04-07T11:33:47.063Z,29.67
2019-04-07T11:36:23.475Z,28.57
2019-04-07T11:38:59.417Z,29.57
2019-04-07T11:42:05.733Z,29.40
2019-04-07T11:44:55.469Z,28.87
2019-04-07T11:47:42.769Z,28.97
2019-04-07T11:50:32.706Z,26.13
2019-04-07T11:53:18.344Z,30.00
2019-04-07T11:56:23.950Z,28.17
2019-04-07T11:59:22.794Z,28.93
2019-04-07T12:02:12.607Z,27.47
2019-04-07T12:05:08.248Z,27.37
2019-04-07T12:08:10.464Z,27.77
2019-04-07T12:11:06.604Z,26.93
2019-04-07T12:13:42.889Z,28.10
2019-04-07T12:16:35.097Z,26.50
2019-04-07T12:19:23.900Z,24.97
2019-04-07T12:22:05.539Z,25.33
2019-04-07T12:24:50.506Z,23.27
2019-04-07T12:27:47.137Z,21.77
2019-04-07T12:30:36.931Z,23.23
2019-04-07T12:33:29.664Z,23.53
2019-04-07T12:36:30.228Z,23.10
2019-04-07T12:39:23.044Z,23.53
2019-04-07T12:42:07.067Z,22.20
2019-04-07T12:44:53.823Z,22.00
2019-04-07T12:47:39.773Z,20.33
2019-04-07T12:50:39.220Z,22.60
2019-04-07T12:53:33.476Z,18.80
2019-04-07T12:56:31.539Z,21.40
2019-04-07T12:59:15.737Z,19.87
2019-04-07T13:01:50.990Z,21.83
2019-04-07T13:04:40.784Z,20.77
2019-04-07T13:07:37.612Z,19.00
2019-04-07T13:10:14.372Z,15.27
2019-04-07T13:12:55.823Z,14.67
2019-04-07T13:15:38.924Z,13.87
2019-04-07T13:18:37.779Z,14.33
2019-04-07T13:21:24.567Z,11.77
2019-04-07T13:24:12.700Z,11.30
2019-04-07T13:27:14.154Z,12.90
2019-04-07T13:30:04.114Z,12.73
2019-04-07T13:32:57.550Z,13.13
2019-04-07T13:35:49.263Z,13.17
2019-04-07T13:38:22.961Z,11.77
2019-04-07T13:41:12.263Z,10.93
2019-04-07T13:44:08.873Z,9.50
2019-04-07T13:47:01.868Z,11.33
2019-04-07T13:49:41.331Z,12.27
2019-04-07T13:52:19.325Z,12.47
2019-04-07T13:54:54.910Z,12.17
2019-04-07T13:57:42.816Z,12.47
2019-04-07T14:00:18.473Z,12.90
2019-04-07T14:02:56.096Z,12.80
2019-04-07T14:05:38.840Z,11.20
2019-04-07T14:08:25.808Z,11.90
2019-04-07T14:11:11.053Z,31.90
2019-04-07T14:13:57.671Z,35.47
2019-04-07T14:16:43.250Z,36.17
2019-04-07T14:19:32.063Z,35.33
2019-04-07T14:22:14.458Z,34.50
2019-04-07T14:24:53.758Z,35.77
2019-04-07T14:27:41.385Z,34.17
2019-04-07T14:30:35.306Z,33.23
2019-04-07T14:33:34.058Z,31.50
2019-04-07T14:36:23.823Z,32.07
2019-04-07T14:39:17.709Z,30.47
2019-04-07T14:42:07.608Z,32.00
2019-04-07T14:44:48.692Z,32.37
2019-04-07T14:47:31.291Z,32.90
2019-04-07T14:50:17.118Z,31.17
2019-04-07T14:53:07.699Z,30.80
2019-04-07T14:56:00.190Z,31.20
2019-04-07T14:58:48.500Z,32.27
2019-04-07T15:01:36.821Z,33.50
2019-04-07T15:04:05.176Z,35.60
2019-04-07T15:06:35.074Z,36.43
2019-04-07T15:09:13.597Z,38.37
2019-04-07T15:11:51.264Z,37.10
2019-04-07T15:14:19.211Z,36.43
2019-04-07T15:16:47.850Z,36.93
2019-04-07T15:19:17.846Z,36.67
2019-04-07T15:21:45.285Z,37.27
2019-04-07T15:24:13.274Z,35.73
2019-04-07T15:26:40.613Z,37.73
2019-04-07T15:29:10.606Z,37.30
2019-04-07T15:31:37.455Z,38.57
2019-04-07T15:34:08.572Z,36.27
2019-04-07T15:36:33.990Z,37.47
2019-04-07T15:39:01.299Z,38.53
2019-04-07T15:41:28.535Z,37.70
2019-04-07T15:43:55.827Z,38.87
2019-04-07T15:46:23.625Z,38.90
2019-04-07T15:48:54.283Z,38.73
2019-04-07T15:51:20.182Z,37.47
2019-04-07T15:53:51.330Z,37.53
2019-04-07T15:56:18.416Z,37.50
2019-04-07T15:58:46.418Z,36.57
2019-04-07T16:01:13.927Z,36.90
2019-04-07T16:03:41.926Z,37.43
2019-04-07T16:06:09.757Z,35.87
2019-04-07T16:08:39.311Z,35.50
2019-04-07T16:11:07.020Z,35.57
2019-04-07T16:13:34.348Z,35.17
2019-04-07T16:16:02.652Z,34.60
2019-04-07T16:18:30.087Z,36.97
2019-04-07T16:20:58.022Z,37.13
2019-04-07T16:23:26.137Z,38.80
2019-04-07T16:25:54.951Z,37.90
2019-04-07T16:28:22.870Z,39.17
2019-04-07T16:30:52.041Z,36.23
2019-04-07T16:33:19.523Z,37.90
2019-04-07T16:35:51.941Z,39.80
2019-04-07T16:38:16.395Z,38.90
2019-04-07T16:40:44.630Z,39.20
2019-04-07T16:43:16.129Z,39.00
2019-04-07T16:45:44.135Z,40.57
2019-04-07T16:48:10.828Z,40.97
2019-04-07T16:50:38.237Z,41.50
2019-04-07T16:53:07.576Z,39.80
2019-04-07T16:55:41.806Z,41.63
2019-04-07T16:58:09.663Z,41.20
2019-04-07T17:00:38.230Z,38.77
2019-04-07T17:03:07.730Z,38.50
2019-04-07T17:05:35.485Z,38.00
2019-04-07T17:08:03.816Z,39.07
2019-04-07T17:10:34.139Z,39.43
2019-04-07T17:13:02.813Z,40.33
2019-04-07T17:15:29.675Z,39.43
2019-04-07T17:17:57.036Z,38.13
2019-04-07T17:20:27.187Z,39.53
2019-04-07T17:22:54.150Z,38.40
2019-04-07T17:25:21.695Z,39.70
2019-04-07T17:27:49.786Z,39.30
2019-04-07T17:30:18.396Z,39.23
2019-04-07T17:32:45.884Z,39.60
2019-04-07T17:35:17.192Z,39.83
2019-04-07T17:37:43.798Z,40.33
2019-04-07T17:40:14.730Z,39.93
2019-04-07T17:42:45.058Z,42.37
2019-04-07T17:45:43.109Z,40.73
2019-04-07T17:48:53.321Z,40.70
2019-04-07T17:51:40.370Z,40.77
2019-04-07T17:54:36.543Z,42.33
2019-04-07T17:57:12.015Z,38.13
2019-04-07T17:59:58.270Z,42.27
2019-04-07T18:02:54.865Z,39.33
2019-04-07T18:05:32.416Z,39.40
2019-04-07T18:08:19.893Z,42.50
2019-04-07T18:11:00.987Z,40.33
2019-04-07T18:13:51.587Z,42.17
2019-04-07T18:16:46.110Z,41.33
2019-04-07T18:19:34.830Z,41.87
2019-04-07T18:22:23.523Z,43.10
2019-04-07T18:25:03.728Z,41.20
2019-04-07T18:27:53.333Z,44.40
2019-04-07T18:30:47.233Z,42.87
2019-04-07T18:33:25.388Z,40.70
2019-04-07T18:36:07.009Z,43.13
2019-04-07T18:39:09.861Z,43.90
2019-04-07T18:42:11.416Z,44.87
2019-04-07T18:45:04.058Z,48.00
2019-04-07T18:47:48.332Z,45.67
2019-04-07T18:50:45.423Z,47.33
2019-04-07T18:53:30.739Z,45.23
2019-04-07T18:56:27.146Z,45.63
2019-04-07T18:59:32.008Z,48.63
2019-04-07T19:02:24.867Z,47.47
2019-04-07T19:05:05.086Z,46.07
2019-04-07T19:07:59.522Z,48.53
2019-04-07T19:11:12.361Z,49.63
2019-04-07T19:14:01.814Z,48.33
2019-04-07T19:16:47.099Z,45.93
2019-04-07T19:19:34.056Z,47.87
2019-04-07T19:22:15.872Z,50.13
2019-04-07T19:25:21.452Z,49.37
2019-04-07T19:28:11.460Z,47.90
2019-04-07T19:31:10.735Z,48.63
2019-04-07T19:34:16.180Z,45.83
2019-04-07T19:36:50.043Z,47.73
2019-04-07T19:39:35.242Z,48.77
2019-04-07T19:42:20.615Z,47.00
2019-04-07T19:45:11.191Z,47.70
2019-04-07T19:47:55.238Z,46.73
2019-04-07T19:50:56.338Z,47.90
2019-04-07T19:53:43.294Z,47.60
2019-04-07T19:56:19.256Z,45.63
2019-04-07T19:59:08.304Z,45.67
2019-04-07T20:02:09.631Z,46.00
2019-04-07T20:04:55.064Z,46.90
2019-04-07T20:07:40.441Z,45.87
2019-04-07T20:10:30.708Z,45.47
2019-04-07T20:13:19.858Z,45.60
2019-04-07T20:15:59.189Z,45.67
2019-04-07T20:18:45.923Z,46.60
2019-04-07T20:21:49.358Z,45.90
2019-04-07T20:24:20.371Z,47.73
2019-04-07T20:27:07.183Z,47.63
2019-04-07T20:30:00.528Z,50.27
2019-04-07T20:32:35.255Z,51.47
2019-04-07T20:35:21.784Z,50.63
2019-04-07T20:38:04.778Z,48.30
2019-04-07T20:40:44.438Z,49.10
2019-04-07T20:43:33.010Z,53.00
2019-04-07T20:46:29.531Z,53.50
2019-04-07T20:49:35.768Z,53.77
2019-04-07T20:52:25.006Z,56.60
2019-04-07T20:55:19.504Z,56.67
2019-04-07T20:58:16.263Z,54.53
2019-04-07T21:01:04.631Z,55.87
2019-04-07T21:04:04.505Z,55.97
2019-04-07T21:06:54.975Z,59.00
2019-04-07T21:09:41.993Z,59.07
2019-04-07T21:12:31.064Z,59.80
2019-04-07T21:15:31.142Z,60.37
2019-04-07T21:18:39.128Z,62.60
2019-04-07T21:21:29.184Z,63.80
2019-04-07T21:24:21.804Z,64.13
2019-04-07T21:26:57.960Z,62.23
2019-04-07T21:29:45.861Z,65.87
2019-04-07T21:32:27.191Z,66.53
2019-04-07T21:35:25.925Z,66.40
2019-04-07T21:38:11.208Z,65.00
2019-04-07T21:40:58.020Z,62.63
2019-04-07T21:43:30.139Z,62.80
2019-04-07T21:46:22.438Z,60.60
2019-04-07T21:49:10.724Z,65.37
2019-04-07T21:52:00.110Z,64.43
2019-04-07T21:55:06.003Z,63.53
2019-04-07T21:57:41.751Z,62.37
2019-04-07T22:00:31.630Z,66.60
2019-04-07T22:03:22.238Z,62.97
2019-04-07T22:06:07.389Z,61.53
2019-04-07T22:08:48.343Z,62.97
2019-04-07T22:11:15.637Z,63.80
2019-04-07T22:13:42.963Z,63.63
2019-04-07T22:16:10.277Z,64.23
2019-04-07T22:18:39.207Z,63.80
2019-04-07T22:21:07.654Z,60.40
2019-04-07T22:23:35.059Z,59.40
2019-04-07T22:26:02.559Z,59.77
2019-04-07T22:28:30.346Z,57.93
2019-04-07T22:30:59.357Z,59.30
2019-04-07T22:33:30.123Z,58.80
2019-04-07T22:35:55.980Z,56.53
2019-04-07T22:38:23.800Z,58.67
2019-04-07T22:40:52.149Z,59.87
2019-04-07T22:43:20.018Z,61.73
2019-04-07T22:45:58.843Z,60.97
2019-04-07T22:48:18.371Z,61.63
2019-04-07T22:50:48.044Z,59.03
2019-04-07T22:53:15.362Z,61.23
2019-04-07T22:55:42.572Z,61.93
2019-04-07T22:58:09.829Z,61.53
2019-04-07T23:00:37.158Z,58.23
2019-04-07T23:03:04.577Z,60.73
2019-04-07T23:05:31.917Z,62.67
2019-04-07T23:07:59.912Z,61.10
2019-04-07T23:10:27.494Z,58.60
2019-04-07T23:12:55.259Z,59.53
2019-04-07T23:15:22.883Z,58.73
2019-04-07T23:17:50.139Z,58.60
2019-04-07T23:20:17.522Z,59.07
2019-04-07T23:22:44.801Z,58.37
2019-04-07T23:25:12.255Z,60.50
2019-04-07T23:27:39.499Z,56.77
2019-04-07T23:30:07.431Z,55.27
2019-04-07T23:32:34.678Z,56.13
2019-04-07T23:35:02.038Z,57.37
2019-04-07T23:37:29.302Z,57.67
2019-04-07T23:39:56.588Z,56.30
2019-04-07T23:42:24.250Z,50.77
2019-04-07T23:44:52.003Z,58.63
2019-04-07T23:47:19.518Z,58.30
2019-04-07T23:49:46.881Z,57.47
2019-04-07T23:52:14.559Z,55.53
2019-04-07T23:54:41.984Z,58.07
2019-04-07T23:57:09.400Z,56.10
2019-04-07T23:59:36.584Z,56.10
